createdAt,value
2018-03-22T00:01:36.988Z,28.23
2018-03-22T00:04:04.629Z,29.13
2018-03-22T00:06:32.246Z,30.70
2018-03-22T00:08:59.890Z,29.13
2018-03-22T00:11:27.532Z,19.57
2018-03-22T00:13:55.200Z,23.83
2018-03-22T00:16:22.912Z,19.47
2018-03-22T00:18:50.573Z,22.60
2018-03-22T00:21:18.188Z,26.70
2018-03-22T00:23:45.829Z,20.23
2018-03-22T00:26:13.441Z,25.53
2018-03-22T00:28:41.077Z,29.87
2018-03-22T00:31:08.695Z,16.93
2018-03-22T00:33:36.449Z,21.60
2018-03-22T00:36:04.065Z,24.47
2018-03-22T00:38:31.778Z,21.70
2018-03-22T00:40:59.451Z,24.23
2018-03-22T00:43:27.100Z,21.37
2018-03-22T00:45:54.765Z,26.47
2018-03-22T00:48:22.396Z,23.33
2018-03-22T00:50:50.012Z,18.50
2018-03-22T00:53:17.653Z,26.13
2018-03-22T00:55:45.265Z,25.50
2018-03-22T00:58:12.909Z,30.10
2018-03-22T01:00:40.534Z,24.03
2018-03-22T01:03:08.202Z,19.83
2018-03-22T01:05:35.837Z,18.53
2018-03-22T01:08:03.453Z,26.70
2018-03-22T01:10:31.105Z,24.50
2018-03-22T01:12:58.726Z,25.63
2018-03-22T01:15:26.407Z,23.37
2018-03-22T01:17:54.031Z,29.50
2018-03-22T01:20:21.737Z,17.83
2018-03-22T01:22:49.405Z,23.40
2018-03-22T01:25:17.041Z,26.73
2018-03-22T01:27:44.720Z,21.93
2018-03-22T01:30:24.260Z,21.17
2018-03-22T01:32:51.873Z,29.33
2018-03-22T01:35:19.588Z,26.20
2018-03-22T01:37:47.213Z,21.40
2018-03-22T01:40:14.848Z,25.33
2018-03-22T01:42:42.462Z,22.90
2018-03-22T01:45:10.104Z,34.40
2018-03-22T01:47:37.806Z,24.10
2018-03-22T01:50:05.436Z,28.57
2018-03-22T01:52:33.053Z,25.90
2018-03-22T01:55:00.699Z,23.67
2018-03-22T01:57:28.316Z,30.13
2018-03-22T01:59:55.953Z,27.40
2018-03-22T02:02:23.573Z,20.10
2018-03-22T02:04:51.217Z,35.27
2018-03-22T02:07:18.823Z,26.20
2018-03-22T02:09:46.562Z,26.43
2018-03-22T02:12:14.177Z,24.93
2018-03-22T02:14:41.879Z,30.63
2018-03-22T02:17:09.548Z,28.63
2018-03-22T02:19:37.192Z,22.93
2018-03-22T02:22:04.805Z,24.60
2018-03-22T02:24:32.536Z,34.50
2018-03-22T02:27:00.148Z,33.80
2018-03-22T02:29:27.866Z,30.87
2018-03-22T02:31:55.533Z,27.53
2018-03-22T02:34:23.182Z,38.83
2018-03-22T02:36:50.852Z,28.53
2018-03-22T02:39:18.470Z,24.90
2018-03-22T02:41:46.104Z,22.37
2018-03-22T02:44:13.746Z,32.70
2018-03-22T02:46:41.403Z,25.33
2018-03-22T02:49:09.017Z,25.77
2018-03-22T02:51:36.662Z,42.23
2018-03-22T02:54:04.285Z,29.37
2018-03-22T02:56:31.912Z,34.80
2018-03-22T02:58:59.539Z,37.93
2018-03-22T03:01:27.273Z,29.50
2018-03-22T03:03:54.890Z,27.30
2018-03-22T03:06:22.592Z,31.77
2018-03-22T03:08:50.264Z,32.33
2018-03-22T03:11:17.904Z,33.17
2018-03-22T03:13:45.549Z,36.90
2018-03-22T03:16:13.246Z,31.00
2018-03-22T03:18:40.848Z,31.80
2018-03-22T03:21:08.481Z,24.10
2018-03-22T03:23:36.102Z,22.30
2018-03-22T03:26:03.753Z,32.37
2018-03-22T03:28:31.465Z,30.23
2018-03-22T03:30:59.139Z,27.40
2018-03-22T03:33:26.801Z,29.00
2018-03-22T03:35:54.457Z,33.13
2018-03-22T03:38:22.069Z,33.43
2018-03-22T03:40:49.708Z,27.27
2018-03-22T03:43:17.316Z,26.47
2018-03-22T03:45:44.991Z,31.17
2018-03-22T03:48:12.668Z,33.20
2018-03-22T03:50:40.290Z,33.97
2018-03-22T03:53:07.925Z,33.90
2018-03-22T03:55:35.653Z,27.60
2018-03-22T03:58:03.317Z,32.17
2018-03-22T04:00:30.980Z,31.20
2018-03-22T04:02:58.608Z,31.10
2018-03-22T04:05:26.229Z,38.70
2018-03-22T04:07:53.869Z,28.43
2018-03-22T04:10:21.533Z,34.63
2018-03-22T04:12:49.166Z,29.23
2018-03-22T04:15:16.843Z,34.37
2018-03-22T04:17:44.515Z,24.03
2018-03-22T04:20:12.131Z,27.53
2018-03-22T04:22:39.777Z,37.50
2018-03-22T04:25:07.391Z,27.67
2018-03-22T04:27:35.032Z,23.83
2018-03-22T04:30:02.649Z,34.53
2018-03-22T04:32:30.379Z,38.27
2018-03-22T04:34:57.997Z,23.03
2018-03-22T04:37:25.637Z,32.93
2018-03-22T04:39:53.253Z,50.77
2018-03-22T04:42:20.893Z,45.80
2018-03-22T04:44:48.600Z,23.83
2018-03-22T04:47:16.246Z,41.47
2018-03-22T04:49:43.869Z,37.90
2018-03-22T04:52:11.581Z,40.20
2018-03-22T04:54:39.192Z,36.10
2018-03-22T04:57:06.918Z,36.17
2018-03-22T04:59:34.528Z,41.30
2018-03-22T05:02:02.148Z,42.93
2018-03-22T05:04:29.801Z,56.00
2018-03-22T05:06:57.431Z,43.47
2018-03-22T05:09:25.068Z,44.10
2018-03-22T05:11:52.761Z,49.65
2018-03-22T05:14:20.456Z,45.97
2018-03-22T05:16:48.064Z,45.10
2018-03-22T05:19:15.771Z,36.30
2018-03-22T05:21:43.392Z,46.27
2018-03-22T05:24:11.032Z,50.27
2018-03-22T05:26:38.643Z,44.10
2018-03-22T05:29:06.316Z,41.97
2018-03-22T05:31:33.948Z,42.23
2018-03-22T05:34:01.649Z,47.30
2018-03-22T05:36:29.280Z,49.47
2018-03-22T05:38:57.071Z,47.53
2018-03-22T05:41:24.685Z,56.33
2018-03-22T05:43:52.443Z,54.70
2018-03-22T05:46:20.168Z,72.50
2018-03-22T05:48:47.805Z,59.73
2018-03-22T05:51:15.419Z,50.83
2018-03-22T05:53:44.697Z,47.20
2018-03-22T05:56:12.366Z,57.33
2018-03-22T05:58:39.997Z,61.10
2018-03-22T06:01:07.613Z,64.90
2018-03-22T06:03:35.249Z,54.27
2018-03-22T06:06:02.861Z,64.57
2018-03-22T06:08:30.491Z,60.43
2018-03-22T06:10:58.109Z,65.97
2018-03-22T06:13:25.792Z,75.93
2018-03-22T06:15:53.405Z,69.57
2018-03-22T06:18:21.120Z,60.90
2018-03-22T06:20:48.766Z,65.63
2018-03-22T06:23:16.537Z,58.83
2018-03-22T06:25:44.231Z,58.53
2018-03-22T06:28:11.864Z,59.13
2018-03-22T06:30:39.537Z,57.10
2018-03-22T06:33:07.193Z,53.43
2018-03-22T06:35:34.833Z,56.97
2018-03-22T06:38:02.448Z,46.13
2018-03-22T06:40:30.184Z,51.67
2018-03-22T06:42:57.844Z,51.37
2018-03-22T06:45:25.505Z,54.63
2018-03-22T06:47:53.112Z,59.10
2018-03-22T06:50:20.829Z,57.50
2018-03-22T06:52:48.441Z,58.23
2018-03-22T06:55:16.163Z,51.20
2018-03-22T06:57:43.825Z,52.70
2018-03-22T07:00:11.460Z,38.03
2018-03-22T07:02:39.148Z,40.33
2018-03-22T07:05:06.787Z,45.97
2018-03-22T07:07:34.468Z,45.13
2018-03-22T07:10:02.232Z,45.37
2018-03-22T07:12:29.902Z,48.77
2018-03-22T07:14:57.527Z,46.57
2018-03-22T07:17:25.232Z,43.53
2018-03-22T07:19:52.875Z,43.93
2018-03-22T07:22:20.515Z,39.10
2018-03-22T07:24:48.221Z,42.60
2018-03-22T07:27:15.828Z,40.30
2018-03-22T07:29:43.534Z,40.20
2018-03-22T07:32:11.150Z,41.50
2018-03-22T07:34:38.765Z,44.93
2018-03-22T07:37:06.430Z,37.97
2018-03-22T07:39:34.044Z,42.03
2018-03-22T07:42:01.681Z,44.40
2018-03-22T07:44:34.909Z,31.30
2018-03-22T07:47:02.600Z,40.87
2018-03-22T07:49:30.264Z,42.70
2018-03-22T07:51:57.913Z,31.90
2018-03-22T07:54:25.595Z,39.40
2018-03-22T07:56:53.266Z,37.77
2018-03-22T07:59:20.874Z,43.43
2018-03-22T08:01:48.580Z,29.17
2018-03-22T08:04:16.193Z,39.20
2018-03-22T08:06:43.819Z,37.20
2018-03-22T08:09:11.567Z,40.67
2018-03-22T08:11:39.730Z,51.77
2018-03-22T08:14:07.347Z,53.60
2018-03-22T08:16:35.081Z,34.70
2018-03-22T08:19:02.698Z,28.60
2018-03-22T08:21:30.401Z,34.17
2018-03-22T08:23:58.011Z,31.43
2018-03-22T08:26:25.646Z,29.17
2018-03-22T08:28:53.269Z,33.27
2018-03-22T08:31:20.953Z,26.37
2018-03-22T08:33:48.612Z,28.40
2018-03-22T08:36:16.334Z,37.50
2018-03-22T08:38:43.943Z,32.27
2018-03-22T08:41:11.618Z,34.50
2018-03-22T08:43:39.358Z,23.37
2018-03-22T08:46:06.973Z,21.97
2018-03-22T08:48:34.599Z,24.97
2018-03-22T08:51:02.208Z,28.63
2018-03-22T08:53:29.841Z,26.13
2018-03-22T08:55:57.481Z,26.93
2018-03-22T08:58:25.141Z,25.53
2018-03-22T09:00:52.757Z,23.30
2018-03-22T09:03:20.384Z,27.77
2018-03-22T09:05:47.998Z,26.33
2018-03-22T09:08:15.689Z,26.87
2018-03-22T09:10:43.344Z,22.93
2018-03-22T09:13:11.017Z,25.47
2018-03-22T09:15:38.620Z,27.53
2018-03-22T09:18:06.328Z,21.50
2018-03-22T09:20:33.936Z,19.80
2018-03-22T09:23:01.573Z,29.53
2018-03-22T09:25:29.229Z,24.53
2018-03-22T09:27:56.856Z,27.33
2018-03-22T09:30:24.464Z,24.90
2018-03-22T09:32:52.107Z,26.03
2018-03-22T09:35:19.723Z,41.47
2018-03-22T09:37:47.427Z,49.73
2018-03-22T09:40:15.105Z,27.93
2018-03-22T09:42:42.741Z,29.70
2018-03-22T09:45:10.357Z,29.63
2018-03-22T09:47:37.988Z,29.57
2018-03-22T09:50:05.650Z,29.77
2018-03-22T09:52:33.289Z,29.00
2018-03-22T09:55:00.972Z,27.57
2018-03-22T09:57:28.626Z,24.77
2018-03-22T09:59:56.256Z,27.67
2018-03-22T10:02:23.925Z,24.80
2018-03-22T10:04:51.625Z,26.40
2018-03-22T10:07:19.249Z,25.60
2018-03-22T10:09:46.948Z,26.93
2018-03-22T10:12:14.603Z,25.50
2018-03-22T10:14:42.244Z,24.47
2018-03-22T10:17:09.934Z,22.63
2018-03-22T10:19:37.564Z,25.23
2018-03-22T10:22:05.200Z,23.57
2018-03-22T10:24:32.845Z,23.23
2018-03-22T10:27:00.492Z,23.53
2018-03-22T10:29:28.129Z,24.47
2018-03-22T10:31:55.813Z,22.83
2018-03-22T10:34:23.448Z,24.73
2018-03-22T10:36:51.056Z,24.30
2018-03-22T10:39:18.693Z,23.00
2018-03-22T10:41:46.311Z,22.87
2018-03-22T10:44:13.944Z,19.63
2018-03-22T10:46:41.575Z,21.23
2018-03-22T10:49:09.217Z,26.50
2018-03-22T10:51:36.833Z,29.00
2018-03-22T10:54:04.576Z,25.43
2018-03-22T10:56:32.183Z,29.50
2018-03-22T10:58:59.821Z,34.20
2018-03-22T11:01:33.112Z,27.57
2018-03-22T11:04:07.568Z,31.60
2018-03-22T11:06:35.277Z,35.73
2018-03-22T11:09:02.913Z,30.93
2018-03-22T11:11:30.523Z,33.47
2018-03-22T11:13:58.185Z,28.83
2018-03-22T11:16:25.816Z,32.10
2018-03-22T11:18:53.436Z,31.47
2018-03-22T11:21:21.067Z,31.10
2018-03-22T11:23:48.703Z,28.93
2018-03-22T11:26:16.341Z,30.77
2018-03-22T11:28:43.955Z,25.60
2018-03-22T11:31:11.700Z,31.53
2018-03-22T11:33:39.357Z,34.70
2018-03-22T11:36:06.992Z,37.07
2018-03-22T11:38:34.605Z,28.87
2018-03-22T11:41:02.236Z,32.03
2018-03-22T11:43:29.849Z,31.67
2018-03-22T11:45:57.479Z,37.43
2018-03-22T11:48:25.232Z,32.83
2018-03-22T11:50:52.889Z,40.13
2018-03-22T11:53:20.565Z,43.40
2018-03-22T11:55:48.226Z,40.30
2018-03-22T11:58:15.882Z,31.30
2018-03-22T12:00:43.517Z,29.00
2018-03-22T12:03:11.133Z,31.37
2018-03-22T12:05:38.761Z,40.97
2018-03-22T12:08:06.439Z,39.00
2018-03-22T12:10:34.095Z,31.07
2018-03-22T12:13:01.767Z,32.90
2018-03-22T12:15:29.520Z,31.50
2018-03-22T12:17:57.192Z,39.50
2018-03-22T12:20:24.837Z,37.10
2018-03-22T12:22:52.453Z,32.67
2018-03-22T12:25:20.093Z,32.17
2018-03-22T12:27:47.731Z,38.20
2018-03-22T12:30:15.370Z,34.77
2018-03-22T12:32:43.048Z,36.77
2018-03-22T12:35:10.726Z,43.20
2018-03-22T12:37:38.371Z,35.87
2018-03-22T12:40:06.048Z,34.40
2018-03-22T12:42:33.689Z,32.03
2018-03-22T12:45:01.382Z,24.67
2018-03-22T12:47:29.021Z,32.83
2018-03-22T12:49:56.627Z,35.50
2018-03-22T12:52:24.375Z,35.87
2018-03-22T12:54:52.037Z,35.40
2018-03-22T12:57:19.692Z,33.53
2018-03-22T12:59:47.356Z,28.60
2018-03-22T13:02:14.997Z,32.87
2018-03-22T13:04:42.613Z,32.43
2018-03-22T13:07:10.335Z,32.70
2018-03-22T13:09:38.009Z,30.37
2018-03-22T13:12:05.650Z,29.57
2018-03-22T13:14:33.259Z,30.07
2018-03-22T13:17:00.888Z,35.20
2018-03-22T13:19:28.556Z,27.40
2018-03-22T13:21:56.225Z,26.97
2018-03-22T13:24:23.839Z,24.90
2018-03-22T13:26:51.537Z,27.47
2018-03-22T13:29:19.209Z,28.47
2018-03-22T13:31:46.850Z,26.53
2018-03-22T13:34:14.532Z,32.37
2018-03-22T13:36:42.169Z,31.30
2018-03-22T13:39:09.855Z,26.20
2018-03-22T13:41:37.488Z,24.30
2018-03-22T13:44:05.095Z,21.17
2018-03-22T13:46:32.728Z,21.33
2018-03-22T13:49:00.340Z,23.57
2018-03-22T13:51:27.953Z,26.10
2018-03-22T13:53:55.633Z,19.67
2018-03-22T13:56:23.291Z,27.20
2018-03-22T13:58:50.969Z,22.43
2018-03-22T14:01:18.587Z,20.07
2018-03-22T14:03:46.221Z,21.10
2018-03-22T14:06:13.833Z,19.07
2018-03-22T14:08:41.471Z,19.50
2018-03-22T14:11:09.086Z,23.53
2018-03-22T14:13:36.720Z,14.40
2018-03-22T14:16:04.349Z,13.70
2018-03-22T14:18:31.993Z,13.53
2018-03-22T14:20:59.712Z,12.90
2018-03-22T14:23:27.345Z,11.93
2018-03-22T14:25:54.959Z,11.80
2018-03-22T14:28:22.594Z,13.07
2018-03-22T14:30:50.213Z,10.20
2018-03-22T14:33:17.851Z,16.70
2018-03-22T14:35:45.490Z,11.10
2018-03-22T14:38:13.120Z,10.80
2018-03-22T14:40:40.720Z,9.10
2018-03-22T14:43:08.373Z,9.87
2018-03-22T14:45:36.030Z,10.87
2018-03-22T14:48:03.658Z,9.50
2018-03-22T14:50:31.280Z,10.30
2018-03-22T14:52:58.921Z,21.00
2018-03-22T14:55:26.532Z,11.50
2018-03-22T14:57:54.248Z,11.20
2018-03-22T15:00:21.864Z,11.40
2018-03-22T15:02:49.492Z,11.80
2018-03-22T15:05:17.109Z,16.90
2018-03-22T15:07:44.724Z,10.33
2018-03-22T15:10:12.366Z,11.00
2018-03-22T15:12:39.976Z,11.73
2018-03-22T15:15:07.613Z,12.70
2018-03-22T15:17:35.217Z,10.70
2018-03-22T15:20:02.909Z,13.20
2018-03-22T15:22:30.521Z,12.07
2018-03-22T15:24:58.233Z,11.80
2018-03-22T15:27:25.898Z,13.00
2018-03-22T15:29:53.553Z,11.13
2018-03-22T15:32:21.160Z,11.20
2018-03-22T15:34:48.787Z,14.43
2018-03-22T15:37:16.396Z,11.20
2018-03-22T15:39:44.033Z,12.83
2018-03-22T15:42:11.636Z,10.53
2018-03-22T15:44:39.273Z,12.53
2018-03-22T15:47:06.993Z,12.13
2018-03-22T15:49:34.632Z,13.63
2018-03-22T15:52:02.311Z,13.33
2018-03-22T15:54:30.141Z,12.60
2018-03-22T15:57:01.848Z,13.60
2018-03-22T15:59:29.600Z,19.40
2018-03-22T16:01:57.228Z,12.60
2018-03-22T16:04:24.864Z,16.07
2018-03-22T16:06:52.472Z,12.23
2018-03-22T16:09:20.113Z,17.63
2018-03-22T16:11:47.911Z,13.53
2018-03-22T16:14:15.893Z,16.43
2018-03-22T16:16:43.503Z,13.30
2018-03-22T16:19:11.131Z,20.07
2018-03-22T16:21:38.752Z,16.43
2018-03-22T16:24:06.385Z,15.10
2018-03-22T16:26:34.096Z,15.23
2018-03-22T16:29:01.760Z,19.93
2018-03-22T16:31:29.443Z,17.37
2018-03-22T16:33:57.095Z,20.80
2018-03-22T16:36:24.740Z,16.73
2018-03-22T16:38:52.356Z,20.70
2018-03-22T16:41:20.085Z,18.00
2018-03-22T16:43:47.740Z,37.60
2018-03-22T16:46:15.372Z,24.70
2018-03-22T16:48:42.983Z,15.87
2018-03-22T16:51:10.725Z,18.37
2018-03-22T16:53:39.281Z,20.90
2018-03-22T16:56:06.916Z,19.57
2018-03-22T16:58:34.529Z,23.20
2018-03-22T17:01:02.200Z,18.17
2018-03-22T17:03:29.812Z,18.17
2018-03-22T17:05:57.453Z,18.40
2018-03-22T17:08:25.067Z,19.47
2018-03-22T17:10:52.701Z,23.23
2018-03-22T17:13:20.311Z,20.30
2018-03-22T17:15:47.977Z,25.93
2018-03-22T17:18:15.597Z,22.87
2018-03-22T17:20:43.292Z,18.53
2018-03-22T17:23:10.915Z,22.30
2018-03-22T17:25:38.557Z,18.10
2018-03-22T17:28:06.182Z,22.07
2018-03-22T17:30:33.817Z,19.87
2018-03-22T17:33:01.503Z,19.13
2018-03-22T17:35:29.141Z,15.80
2018-03-22T17:37:56.828Z,19.63
2018-03-22T17:40:24.505Z,25.40
2018-03-22T17:42:52.148Z,25.23
2018-03-22T17:45:19.837Z,18.93
2018-03-22T17:47:47.489Z,25.17
2018-03-22T17:50:15.153Z,20.67
2018-03-22T17:52:42.780Z,22.83
2018-03-22T17:55:10.394Z,23.27
2018-03-22T17:57:38.084Z,22.87
2018-03-22T18:00:05.676Z,21.80
2018-03-22T18:02:33.312Z,20.37
2018-03-22T18:05:00.926Z,18.83
2018-03-22T18:07:28.565Z,25.20
2018-03-22T18:09:56.251Z,15.87
2018-03-22T18:12:23.888Z,20.97
2018-03-22T18:14:51.548Z,19.07
2018-03-22T18:17:19.184Z,17.93
2018-03-22T18:19:46.816Z,21.50
2018-03-22T18:22:14.465Z,21.57
2018-03-22T18:24:42.077Z,17.40
2018-03-22T18:27:09.790Z,18.03
2018-03-22T18:29:37.453Z,15.83
2018-03-22T18:32:05.164Z,19.50
2018-03-22T18:34:32.784Z,17.60
2018-03-22T18:37:00.411Z,17.67
2018-03-22T18:39:28.100Z,17.87
2018-03-22T18:41:55.728Z,15.43
2018-03-22T18:44:23.349Z,20.90
2018-03-22T18:46:51.089Z,20.40
2018-03-22T18:49:18.692Z,14.87
2018-03-22T18:51:46.323Z,19.40
2018-03-22T18:54:13.941Z,17.67
2018-03-22T18:56:41.556Z,15.10
2018-03-22T18:59:09.268Z,23.25
2018-03-22T19:01:36.961Z,19.47
2018-03-22T19:04:04.605Z,14.87
2018-03-22T19:06:32.287Z,9.67
2018-03-22T19:08:59.929Z,19.23
2018-03-22T19:11:27.608Z,19.93
2018-03-22T19:13:55.277Z,19.37
2018-03-22T19:16:22.880Z,17.70
2018-03-22T19:18:50.524Z,17.80
2018-03-22T19:21:18.141Z,15.30
2018-03-22T19:23:45.775Z,16.93
2018-03-22T19:26:13.637Z,23.93
2018-03-22T19:28:41.269Z,17.23
2018-03-22T19:31:08.901Z,19.43
2018-03-22T19:33:36.672Z,21.80
2018-03-22T19:36:04.345Z,25.37
2018-03-22T19:38:31.975Z,23.10
2018-03-22T19:40:59.584Z,21.07
2018-03-22T19:43:27.338Z,22.23
2018-03-22T19:45:54.987Z,22.80
2018-03-22T19:48:22.620Z,25.57
2018-03-22T19:50:50.231Z,23.50
2018-03-22T19:53:17.871Z,20.63
2018-03-22T19:55:45.483Z,21.90
2018-03-22T19:58:13.156Z,20.50
2018-03-22T20:00:40.776Z,22.20
2018-03-22T20:03:08.420Z,24.50
2018-03-22T20:05:36.076Z,18.30
2018-03-22T20:08:03.685Z,25.53
2018-03-22T20:10:31.424Z,16.77
2018-03-22T20:12:59.080Z,26.37
2018-03-22T20:15:26.768Z,26.83
2018-03-22T20:17:54.375Z,21.80
2018-03-22T20:20:22.004Z,24.77
2018-03-22T20:22:49.628Z,27.60
2018-03-22T20:25:17.255Z,23.40
2018-03-22T20:27:44.864Z,30.10
2018-03-22T20:30:12.501Z,25.43
2018-03-22T20:32:40.176Z,29.47
2018-03-22T20:35:07.820Z,25.90
2018-03-22T20:37:35.436Z,20.83
2018-03-22T20:40:03.073Z,28.03
2018-03-22T20:42:30.693Z,27.23
2018-03-22T20:44:58.389Z,29.07
2018-03-22T20:47:26.058Z,30.47
2018-03-22T20:49:53.725Z,32.17
2018-03-22T20:52:21.337Z,31.83
2018-03-22T20:54:48.968Z,39.20
2018-03-22T20:57:16.596Z,30.53
2018-03-22T20:59:44.228Z,26.87
2018-03-22T21:02:11.929Z,30.17
2018-03-22T21:04:39.589Z,29.57
2018-03-22T21:07:07.253Z,30.90
2018-03-22T21:09:34.892Z,32.77
2018-03-22T21:12:02.509Z,33.27
2018-03-22T21:14:30.139Z,29.70
2018-03-22T21:16:57.800Z,34.10
2018-03-22T21:19:25.457Z,31.80
2018-03-22T21:21:53.133Z,27.57
2018-03-22T21:24:20.784Z,34.23
2018-03-22T21:26:48.404Z,37.70
2018-03-22T21:29:16.024Z,39.40
2018-03-22T21:31:43.676Z,37.10
2018-03-22T21:34:11.289Z,35.90
2018-03-22T21:36:38.929Z,30.97
2018-03-22T21:39:06.657Z,36.87
2018-03-22T21:41:34.294Z,38.20
2018-03-22T21:44:12.638Z,37.93
2018-03-22T21:46:40.292Z,39.67
2018-03-22T21:49:07.895Z,35.80
2018-03-22T21:51:35.633Z,34.77
2018-03-22T21:54:03.240Z,33.27
2018-03-22T21:56:30.878Z,34.20
2018-03-22T21:58:58.499Z,34.37
2018-03-22T22:01:26.144Z,37.10
2018-03-22T22:03:53.759Z,42.23
2018-03-22T22:06:21.389Z,43.13
2018-03-22T22:08:49.054Z,35.43
2018-03-22T22:11:16.729Z,39.53
2018-03-22T22:13:44.335Z,39.43
2018-03-22T22:16:12.640Z,35.93
2018-03-22T22:18:40.421Z,37.57
2018-03-22T22:21:08.097Z,42.50
2018-03-22T22:23:35.704Z,35.63
2018-03-22T22:26:03.336Z,43.80
2018-03-22T22:28:30.985Z,39.77
2018-03-22T22:30:58.639Z,29.40
2018-03-22T22:33:26.305Z,37.87
2018-03-22T22:35:53.957Z,34.00
2018-03-22T22:38:21.568Z,41.93
2018-03-22T22:40:49.185Z,37.30
2018-03-22T22:43:16.820Z,40.63
2018-03-22T22:45:44.437Z,37.10
2018-03-22T22:48:12.172Z,39.00
2018-03-22T22:50:39.843Z,34.40
2018-03-22T22:53:07.481Z,36.93
2018-03-22T22:55:35.087Z,37.83
2018-03-22T22:58:02.724Z,34.37
2018-03-22T23:00:30.336Z,40.30
2018-03-22T23:02:57.968Z,42.27
2018-03-22T23:05:25.572Z,37.47
2018-03-22T23:07:53.248Z,42.10
2018-03-22T23:10:20.854Z,36.57
2018-03-22T23:12:48.601Z,34.30
2018-03-22T23:15:16.207Z,41.70
2018-03-22T23:17:43.919Z,37.73
2018-03-22T23:20:11.593Z,40.73
2018-03-22T23:22:39.272Z,40.80
2018-03-22T23:25:06.880Z,37.67
2018-03-22T23:27:34.571Z,41.83
2018-03-22T23:30:02.243Z,41.20
2018-03-22T23:32:29.907Z,42.33
2018-03-22T23:34:57.521Z,45.83
2018-03-22T23:37:25.233Z,37.70
2018-03-22T23:39:52.888Z,39.80
2018-03-22T23:42:20.526Z,38.60
2018-03-22T23:44:48.141Z,40.87
2018-03-22T23:47:15.781Z,41.57
2018-03-22T23:49:43.391Z,42.10
2018-03-22T23:52:11.033Z,48.43
2018-03-22T23:54:38.659Z,43.10
2018-03-22T23:57:06.316Z,42.60
2018-03-22T23:59:33.989Z,47.97
